Stanwood, Michigan
Current Conditions -  °F | °C
As of 7:34 AM on Thursday 23 Oct 2014 (Local Time) from KRQB Reporting Station
Moderate Fog Moderate Fog  
Wind Chill: 29°   Ceiling: 100
Heat Index: 29°   Visibility: 0.25mi
Dew Point: 29°   Wind: 0mph
Humidity: 100%   Direction: NA
Pressure: 30.23"   Gusts: NA
Location:  43.58°N, 85.45°W
Report Text: KRQB 231134Z AUTO 00000KT 1/4SM FZFG OVC001 M01/M01 A3023 RMK AO2 T10151015
Loading
Personal Weather Stations






























Interactive Weather Map New forecast layout! Learn more

10-Day Weather Forecast

Advertisements
Track Severe Weather on mobile